Time;durP1;ratioP1;P1;durP2;ratioP2;P2;SDS_P1;SDS_P2;PMS_P1;PMS_P2;Temp;Humidity;BMP_temperature;BMP_pressure;BME280_temperature;BME280_humidity;BME280_pressure;Samples;Min_cycle;Max_cycle;Signal;HPM_P1;HPM_P2
2022/03/06 00:00:54;;;;;;;10.00;4.90;;;2.10;66.30;;;-0.01;56.33;100582.03;10460613;27;96462;-77
2022/03/06 00:05:57;;;;;;;11.33;5.13;;;2.00;66.10;;;-0.20;56.71;100581.44;10392812;28;96564;-76
2022/03/06 00:11:00;;;;;;;8.93;3.97;;;1.90;66.50;;;-0.44;57.52;100584.53;10430756;27;97844;-78
2022/03/06 00:16:05;;;;;;;11.57;4.70;;;1.70;67.20;;;-0.64;58.10;100590.06;10441587;27;97108;-78
2022/03/06 00:21:09;;;;;;;9.80;4.70;;;1.50;67.80;;;-0.87;59.17;100586.13;10423113;27;97030;-78
2022/03/06 00:26:12;;;;;;;9.90;4.17;;;1.40;68.30;;;-1.06;59.27;100583.72;10408394;28;96778;-78
2022/03/06 00:31:15;;;;;;;8.77;4.40;;;1.20;68.90;;;-1.23;59.85;100599.44;10426050;27;96795;-76
2022/03/06 00:36:18;;;;;;;11.00;4.03;;;1.00;68.30;;;-1.42;60.88;100600.41;10408208;27;96680;-77
2022/03/06 00:41:23;;;;;;;9.03;4.00;;;0.80;69.30;;;-1.55;61.22;100594.19;10421447;28;96437;-77
2022/03/06 00:46:26;;;;;;;9.87;4.83;;;0.70;71.20;;;-1.66;61.79;100596.50;10402947;28;96647;-77
2022/03/06 00:51:30;;;;;;;6.67;4.00;;;0.60;71.50;;;-1.73;62.11;100600.34;10422524;28;96403;-77
2022/03/06 00:56:34;;;;;;;6.07;3.67;;;0.50;72.20;;;-1.78;62.19;100595.38;10419119;27;97051;-78
2022/03/06 01:01:37;;;;;;;13.83;5.07;;;0.40;72.40;;;-1.84;63.12;100598.31;10399676;28;96552;-78
2022/03/06 01:06:40;;;;;;;24.20;6.87;;;0.30;73.60;;;-1.90;63.20;100602.06;10382907;28;97376;-78
2022/03/06 01:11:43;;;;;;;49.23;10.87;;;0.30;73.70;;;-1.98;63.45;100601.63;10399930;28;96645;-78
2022/03/06 01:16:46;;;;;;;12.03;6.17;;;0.20;74.20;;;-2.09;64.03;100590.91;10398232;28;96622;-77
2022/03/06 01:21:49;;;;;;;17.93;5.90;;;0.10;75.70;;;-2.19;64.38;100590.50;10384259;28;96469;-77
2022/03/06 01:26:53;;;;;;;22.73;6.60;;;0.00;75.10;;;-2.22;64.68;100582.00;10451811;27;96555;-78
2022/03/06 01:31:56;;;;;;;18.43;6.07;;;0.00;76.20;;;-2.27;64.69;100584.03;10403798;27;96802;-77
2022/03/06 01:36:59;;;;;;;65.50;12.00;;;-0.10;76.70;;;-2.30;65.06;100584.16;10419007;28;96709;-78
2022/03/06 01:42:03;;;;;;;13.23;5.10;;;-0.10;78.70;;;-2.36;65.36;100579.25;10403229;28;96543;-78
2022/03/06 01:47:06;;;;;;;33.63;8.97;;;-0.20;78.40;;;-2.47;65.62;100569.38;10399746;28;96476;-78
2022/03/06 01:52:09;;;;;;;15.80;5.17;;;-0.20;79.70;;;-2.54;66.13;100561.03;10403203;27;96519;-78
2022/03/06 01:57:13;;;;;;;11.50;5.33;;;-0.30;79.60;;;-2.60;66.05;100558.72;10421369;28;96441;-78
2022/03/06 02:02:16;;;;;;;8.70;4.43;;;-0.40;79.70;;;-2.67;66.04;100553.91;10412366;28;97551;-78
2022/03/06 02:07:20;;;;;;;12.00;4.27;;;-0.50;81.60;;;-2.74;66.50;100546.41;10410542;27;96776;-78
2022/03/06 02:12:24;;;;;;;8.63;4.37;;;-0.50;81.10;;;-2.83;66.60;100540.81;10453110;27;96924;-77
2022/03/06 02:17:28;;;;;;;9.73;4.70;;;-0.60;82.20;;;-2.89;66.89;100541.94;10426747;27;96728;-77
2022/03/06 02:22:34;;;;;;;8.83;4.17;;;-0.60;81.60;;;-2.96;67.29;100543.16;10398842;28;96429;-77
2022/03/06 02:27:37;;;;;;;10.57;4.90;;;-0.70;81.60;;;-2.93;67.50;100531.78;10414416;27;96624;-78
2022/03/06 02:32:41;;;;;;;10.23;4.37;;;-0.70;83.40;;;-2.94;67.57;100536.13;10397382;28;97634;-78
2022/03/06 02:37:44;;;;;;;12.57;5.40;;;-0.70;84.20;;;-2.94;67.23;100530.91;10382444;28;96924;-78
2022/03/06 02:42:50;;;;;;;11.63;5.30;;;-0.80;84.70;;;-2.96;67.67;100537.97;10395947;28;96547;-77
2022/03/06 02:47:55;;;;;;;11.00;4.20;;;-0.80;84.90;;;-3.00;67.60;100533.81;10435076;27;96792;-78
2022/03/06 02:53:04;;;;;;;9.47;4.33;;;-0.80;84.60;;;-3.05;67.68;100528.00;10424234;27;96558;-77
2022/03/06 02:58:07;;;;;;;6.87;3.43;;;-0.80;85.40;;;-3.12;67.75;100537.88;10454083;27;96737;-77
2022/03/06 03:03:10;;;;;;;9.23;4.57;;;-0.90;85.90;;;-3.14;67.81;100544.03;10438156;27;96676;-77
2022/03/06 03:08:13;;;;;;;10.03;4.00;;;-0.90;86.10;;;-3.18;68.55;100543.31;10440693;27;96391;-77
2022/03/06 03:13:16;;;;;;;9.33;4.10;;;-0.90;87.30;;;-3.19;68.62;100548.59;10402023;27;96599;-77
2022/03/06 03:18:18;;;;;;;8.83;4.17;;;-1.00;88.70;;;-3.22;68.93;100536.59;10401633;28;96578;-77
2022/03/06 03:23:22;;;;;;;7.93;4.00;;;-1.00;88.20;;;-3.25;68.58;100537.56;10386082;27;96542;-77
2022/03/06 03:28:25;;;;;;;10.27;4.33;;;-1.00;87.30;;;-3.26;68.67;100542.84;10443864;27;96504;-76
2022/03/06 03:33:28;;;;;;;10.43;4.30;;;-1.00;88.60;;;-3.27;68.63;100548.97;10434779;27;96585;-76
2022/03/06 03:38:31;;;;;;;7.57;4.23;;;-1.00;87.90;;;-3.27;68.79;100548.97;10402070;27;97138;-76
2022/03/06 03:43:39;;;;;;;9.73;4.33;;;-1.10;90.10;;;-3.20;68.61;100547.75;10403810;28;96447;-76
2022/03/06 03:48:42;;;;;;;9.40;3.97;;;-1.00;89.70;;;-3.20;68.79;100552.13;10419830;28;96478;-76
2022/03/06 03:53:45;;;;;;;7.97;3.67;;;-1.00;89.40;;;-3.19;68.38;100556.41;10406639;28;97343;-76
2022/03/06 03:58:49;;;;;;;10.13;4.67;;;-1.00;90.00;;;-3.24;68.74;100559.22;10402581;28;96563;-76
2022/03/06 04:03:52;;;;;;;7.27;3.67;;;-1.00;90.20;;;-3.28;69.17;100565.47;10418222;28;96383;-76
2022/03/06 04:08:55;;;;;;;8.50;3.53;;;-1.10;90.40;;;-3.33;68.88;100580.44;10402901;27;97420;-76
2022/03/06 04:13:58;;;;;;;7.40;3.50;;;-1.10;90.40;;;-3.37;69.10;100584.09;10419776;28;97295;-76
2022/03/06 04:19:02;;;;;;;9.43;3.40;;;-1.10;90.20;;;-3.41;69.12;100578.19;10401312;27;96514;-76
2022/03/06 04:24:05;;;;;;;7.27;3.73;;;-1.20;90.30;;;-3.44;69.17;100577.47;10386293;27;97560;-76
2022/03/06 04:29:08;;;;;;;6.17;3.57;;;-1.20;90.90;;;-3.47;69.32;100585.44;10402174;28;96628;-76
2022/03/06 04:34:11;;;;;;;8.30;3.23;;;-1.20;90.80;;;-3.53;69.44;100587.38;10402027;28;96692;-76
2022/03/06 04:39:14;;;;;;;6.27;3.43;;;-1.30;91.30;;;-3.60;69.73;100588.59;10404131;27;96388;-76
2022/03/06 04:44:18;;;;;;;7.57;3.40;;;-1.30;90.90;;;-3.67;69.22;100579.34;10420685;27;96560;-76
2022/03/06 04:49:21;;;;;;;6.97;3.40;;;-1.40;91.00;;;-3.69;69.78;100580.34;10400730;28;96449;-77
2022/03/06 04:54:25;;;;;;;9.87;3.60;;;-1.40;91.10;;;-3.70;69.91;100576.91;10400218;27;96510;-76
2022/03/06 04:59:28;;;;;;;9.23;4.20;;;-1.50;91.30;;;-3.66;70.34;100578.44;10398541;28;96532;-76
2022/03/06 05:04:31;;;;;;;9.03;4.43;;;-1.50;92.00;;;-3.56;70.20;100590.13;10383125;27;96548;-77
2022/03/06 05:09:34;;;;;;;10.20;4.37;;;-1.40;92.50;;;-3.53;70.02;100587.38;10417572;28;96419;-77
2022/03/06 05:14:37;;;;;;;9.23;4.63;;;-1.40;91.80;;;-3.53;70.24;100597.78;10423387;27;96618;-77
2022/03/06 05:19:40;;;;;;;9.53;4.33;;;-1.40;92.10;;;-3.48;69.91;100601.91;10444382;27;96989;-77
2022/03/06 05:24:43;;;;;;;8.10;4.47;;;-1.30;92.00;;;-3.40;69.94;100597.22;10427351;27;96432;-77
2022/03/06 05:29:46;;;;;;;8.03;3.97;;;-1.30;92.10;;;-3.26;70.02;100590.47;10441019;27;96558;-76
2022/03/06 05:34:49;;;;;;;9.13;4.50;;;-1.20;92.40;;;-3.05;69.93;100588.66;10420858;27;96578;-77
2022/03/06 05:39:52;;;;;;;12.63;4.67;;;-1.10;93.60;;;-2.83;69.26;100590.22;10418174;27;96512;-77
2022/03/06 05:44:56;;;;;;;9.33;4.33;;;-0.90;93.50;;;-2.67;68.49;100596.38;10382680;27;97405;-77
2022/03/06 05:49:58;;;;;;;11.57;5.20;;;-0.70;92.90;;;-2.50;68.36;100592.97;10397349;28;96474;-77
2022/03/06 05:55:03;;;;;;;15.37;5.13;;;-0.60;92.20;;;-2.34;67.96;100588.69;10405875;27;96591;-77
2022/03/06 06:00:08;;;;;;;13.07;5.60;;;-0.40;91.90;;;-2.14;67.01;100584.25;10399061;28;96553;-77
2022/03/06 06:05:11;;;;;;;13.23;6.27;;;-0.30;91.80;;;-1.99;66.29;100589.50;10382107;28;96541;-78
2022/03/06 06:10:15;;;;;;;8.77;4.70;;;-0.10;91.20;;;-1.76;65.63;100585.72;10382876;27;96407;-78
2022/03/06 06:15:18;;;;;;;11.20;4.50;;;0.10;90.70;;;-1.53;64.74;100586.28;10397700;28;96634;-77
2022/03/06 06:20:22;;;;;;;16.90;8.27;;;0.30;90.20;;;-1.34;64.12;100586.97;10399687;27;98216;-78
2022/03/06 06:25:25;;;;;;;9.97;4.30;;;0.40;89.30;;;-1.18;63.98;100582.59;10416723;27;96411;-77
2022/03/06 06:30:27;;;;;;;8.17;4.00;;;0.60;88.40;;;-1.07;63.23;100579.41;10438855;27;96620;-77
2022/03/06 06:35:32;;;;;;;11.30;4.47;;;0.70;87.70;;;-0.91;62.78;100577.63;10435507;27;97664;-77
2022/03/06 06:40:35;;;;;;;12.27;4.67;;;0.90;86.70;;;-0.70;62.34;100572.16;10438112;27;96622;-76
2022/03/06 06:45:38;;;;;;;10.93;4.57;;;1.10;86.60;;;-0.51;61.85;100567.53;10406905;27;96559;-77
2022/03/06 06:50:41;;;;;;;7.13;3.60;;;1.20;84.90;;;-0.30;60.71;100566.31;10464956;27;96332;-77
2022/03/06 06:55:44;;;;;;;8.17;3.83;;;1.40;83.60;;;-0.06;59.87;100558.81;10445326;27;96462;-77
2022/03/06 07:00:46;;;;;;;7.60;3.97;;;1.60;81.40;;;0.18;58.22;100556.50;10444878;27;96526;-77
2022/03/06 07:05:50;;;;;;;7.07;3.23;;;1.80;81.10;;;0.43;58.52;100555.84;10447689;27;96661;-77
2022/03/06 07:10:53;;;;;;;7.67;3.27;;;2.00;80.30;;;0.66;57.17;100566.63;10442487;27;96532;-76
2022/03/06 07:15:55;;;;;;;59.23;18.57;;;2.30;79.20;;;0.85;56.20;100566.34;10444701;27;97186;-77
2022/03/06 07:21:01;;;;;;;14.40;6.07;;;2.50;76.80;;;1.03;55.52;100570.41;10432547;27;96549;-77
2022/03/06 07:26:05;;;;;;;65.30;18.83;;;2.70;76.80;;;1.19;55.81;100571.06;10427833;27;96503;-77
2022/03/06 07:31:09;;;;;;;63.53;16.50;;;2.80;75.80;;;1.39;54.17;100577.66;10400929;28;96482;-76
2022/03/06 07:36:12;;;;;;;51.83;13.57;;;3.10;74.40;;;1.60;53.35;100575.41;10398444;27;96451;-77
2022/03/06 07:41:17;;;;;;;21.23;7.20;;;3.20;72.90;;;1.78;52.19;100574.16;10428134;27;98727;-77
2022/03/06 07:46:20;;;;;;;127.47;26.73;;;3.40;71.80;;;2.00;52.80;100578.81;10422227;27;96465;-77
2022/03/06 07:51:23;;;;;;;26.53;7.73;;;3.60;72.00;;;2.18;52.36;100566.25;10420031;27;96474;-76
2022/03/06 07:56:26;;;;;;;22.23;7.20;;;3.80;70.30;;;2.40;49.51;100563.81;10455638;27;96573;-77
2022/03/06 08:01:29;;;;;;;87.00;19.23;;;4.00;68.70;;;3.18;49.10;100560.06;10443002;27;96519;-77
2022/03/06 08:06:32;;;;;;;471.80;92.47;;;4.30;68.20;;;4.29;47.32;100545.53;10404584;28;96573;-77
2022/03/06 08:11:34;;;;;;;160.20;33.90;;;4.70;67.00;;;5.30;44.94;100540.09;10412106;27;96423;-77
2022/03/06 08:16:38;;;;;;;87.13;19.93;;;5.30;66.50;;;5.62;43.30;100540.06;10442046;27;96446;-77
2022/03/06 08:21:42;;;;;;;154.23;31.27;;;5.80;64.40;;;5.55;43.46;100534.47;10442240;27;96390;-77
2022/03/06 08:26:45;;;;;;;93.00;22.10;;;6.10;62.50;;;6.11;42.09;100525.41;10421561;27;96466;-77
2022/03/06 08:31:48;;;;;;;79.17;19.73;;;6.60;61.30;;;6.71;41.34;100518.41;10425755;27;96546;-77
2022/03/06 08:36:51;;;;;;;172.80;39.03;;;6.90;59.60;;;6.68;40.18;100522.16;10399929;28;96466;-77
2022/03/06 08:41:54;;;;;;;72.47;19.10;;;7.20;58.80;;;7.04;39.97;100506.66;10427714;27;96504;-77
2022/03/06 08:46:56;;;;;;;31.70;11.10;;;7.60;59.00;;;7.12;38.68;100516.53;10417316;28;96463;-77
2022/03/06 08:52:00;;;;;;;328.17;77.77;;;7.80;55.40;;;7.27;38.80;100515.19;10436890;27;96599;-78
2022/03/06 08:57:04;;;;;;;389.63;100.20;;;7.90;57.00;;;7.75;38.80;100517.78;10423605;27;96574;-78
2022/03/06 09:02:07;;;;;;;92.53;28.17;;;8.30;56.60;;;8.12;36.55;100510.88;10399456;28;96504;-78
2022/03/06 09:07:10;;;;;;;35.90;12.73;;;8.60;52.60;;;7.78;36.29;100511.34;10426934;27;97464;-78
2022/03/06 09:12:14;;;;;;;60.40;19.47;;;8.50;50.60;;;7.93;36.82;100504.66;10442089;27;96516;-78
2022/03/06 09:17:17;;;;;;;331.00;90.63;;;8.50;53.00;;;8.31;35.38;100494.91;10416065;28;96466;-76
2022/03/06 09:22:20;;;;;;;102.87;31.87;;;8.90;52.30;;;8.61;34.60;100496.47;10423330;27;96639;-77
2022/03/06 09:27:24;;;;;;;41.70;14.20;;;9.10;51.20;;;9.18;35.32;100497.09;10405503;28;96660;-77
2022/03/06 09:32:27;;;;;;;14.27;6.40;;;9.50;51.00;;;9.45;33.79;100492.66;10442481;27;96548;-77
2022/03/06 09:37:30;;;;;;;13.50;6.17;;;9.80;49.60;;;9.30;33.79;100482.59;10440896;27;96540;-77
2022/03/06 09:42:34;;;;;;;10.50;5.47;;;10.00;48.90;;;9.28;33.22;100466.00;10430302;27;96572;-77
2022/03/06 09:47:40;;;;;;;7.33;4.27;;;10.10;47.00;;;9.25;33.10;100473.44;10399380;28;97512;-77
2022/03/06 09:52:43;;;;;;;7.50;4.60;;;10.10;47.40;;;9.55;33.39;100469.53;10403918;27;96526;-79
2022/03/06 09:57:48;;;;;;;6.40;4.47;;;10.40;48.80;;;9.95;33.00;100460.16;10416654;27;96682;-77
2022/03/06 10:03:00;;;;;;;7.10;4.57;;;10.70;48.10;;;10.40;32.45;100451.94;10404397;27;96655;-77
2022/03/06 10:08:39;;;;;;;8.37;4.57;;;10.90;47.40;;;10.38;31.29;100444.16;10415199;28;96577;-77
2022/03/06 10:13:45;;;;;;;6.27;4.50;;;11.00;44.50;;;10.19;31.51;100447.88;10323445;28;96529;-77
2022/03/06 10:18:50;;;;;;;6.93;4.47;;;11.00;45.50;;;9.38;31.84;100455.31;10386592;28;97072;-77
2022/03/06 10:23:57;;;;;;;7.53;4.67;;;10.60;45.30;;;9.50;32.77;100459.38;10423397;27;96897;-77
2022/03/06 10:29:09;;;;;;;8.93;5.20;;;10.70;46.30;;;10.02;31.51;100439.97;10412985;27;96812;-77
2022/03/06 10:34:13;;;;;;;8.90;4.87;;;11.10;45.80;;;10.58;31.50;100433.25;10445880;27;97787;-77
2022/03/06 10:39:22;;;;;;;6.85;5.35;;;11.60;45.50;;;11.31;30.40;100430.66;10432217;27;96534;-77
2022/03/06 10:44:45;;;;;;;9.23;4.80;;;12.20;44.70;;;11.97;29.47;100418.94;10420748;28;96469;-77
2022/03/06 10:50:05;;;;;;;8.23;5.53;;;12.90;43.10;;;11.95;28.91;100415.63;10420624;28;96637;-77
2022/03/06 10:55:09;;;;;;;7.13;4.53;;;12.80;42.10;;;12.25;29.07;100397.19;10406562;27;96682;-77
2022/03/06 11:00:12;;;;;;;8.25;5.47;;;13.10;42.80;;;12.81;28.07;100395.19;10412559;27;97290;-76
2022/03/06 11:05:15;;;;;;;11.60;6.63;;;13.70;42.90;;;13.33;27.65;100378.47;10419393;27;96675;-77
2022/03/06 11:10:19;;;;;;;7.82;5.15;;;14.20;42.40;;;13.38;26.12;100381.41;10445827;27;96724;-77
2022/03/06 11:15:24;;;;;;;8.23;5.32;;;14.40;40.80;;;13.54;26.33;100362.53;10443822;27;96535;-77
2022/03/06 11:20:30;;;;;;;10.82;6.13;;;14.60;40.80;;;13.58;26.56;100357.69;10407249;28;96680;-76
2022/03/06 11:25:39;;;;;;;8.32;5.20;;;14.60;40.70;;;14.12;26.65;100344.84;10435597;27;98497;-78
2022/03/06 11:30:43;;;;;;;8.37;5.37;;;15.10;41.00;;;14.33;25.93;100335.19;10402198;28;96589;-77
2022/03/06 11:35:48;;;;;;;7.38;5.05;;;15.40;39.40;;;14.49;25.50;100336.84;10406037;27;96759;-77
2022/03/06 11:40:54;;;;;;;12.32;7.63;;;15.70;39.60;;;14.38;25.08;100322.09;10420432;27;96602;-77
2022/03/06 11:46:11;;;;;;;7.55;5.00;;;15.60;39.20;;;14.78;25.38;100317.16;10419272;27;96723;-77
2022/03/06 11:51:15;;;;;;;10.63;5.45;;;15.90;39.00;;;14.84;23.49;100317.22;10409499;27;96518;-77
2022/03/06 12:01:47;;;;;;;6.45;4.85;;;16.10;36.70;;;14.80;24.40;100307.09;10439599;27;96545;-77
2022/03/06 12:06:57;;;;;;;8.40;5.28;;;16.30;37.20;;;14.80;24.85;100304.41;10415466;27;96558;-77
2022/03/06 12:12:17;;;;;;;14.50;7.55;;;16.30;37.30;;;15.16;23.82;100297.09;10441551;27;96576;-77
2022/03/06 12:17:34;;;;;;;8.32;5.72;;;16.60;36.80;;;15.04;23.84;100281.78;10459882;27;96620;-77
2022/03/06 12:22:48;;;;;;;7.30;5.10;;;16.60;36.50;;;14.95;23.62;100265.88;10459017;27;96448;-77
2022/03/06 12:28:00;;;;;;;7.53;5.38;;;16.60;35.90;;;14.76;22.81;100271.06;10419199;27;96589;-76
2022/03/06 12:33:34;;;;;;;7.60;5.35;;;16.30;34.10;;;13.49;24.20;100266.16;10428045;27;96448;-76
2022/03/06 12:38:38;;;;;;;8.50;5.47;;;15.30;35.50;;;12.10;25.97;100281.69;10429720;27;97968;-76
2022/03/06 12:43:48;;;;;;;8.60;5.40;;;14.10;36.30;;;10.72;27.27;100271.28;10409367;27;96548;-76
2022/03/06 12:48:52;;;;;;;9.32;5.72;;;12.80;37.20;;;9.93;28.89;100270.03;10439688;27;96628;-76
2022/03/06 12:53:55;;;;;;;11.10;6.40;;;11.90;38.40;;;9.43;30.12;100264.72;10441272;27;96441;-76
2022/03/06 12:59:10;;;;;;;9.13;5.47;;;11.30;39.50;;;8.95;30.94;100267.91;10418486;27;98643;-76
2022/03/06 13:04:15;;;;;;;9.67;5.47;;;10.70;41.00;;;8.64;31.11;100276.31;10417104;28;96466;-76
2022/03/06 13:09:27;;;;;;;10.00;6.27;;;10.30;40.50;;;8.32;32.11;100271.50;10399430;27;96506;-77
2022/03/06 13:14:34;;;;;;;10.17;5.93;;;10.00;41.50;;;8.10;31.93;100262.22;10399712;28;96951;-77
2022/03/06 13:19:49;;;;;;;9.80;5.13;;;9.80;41.20;;;8.06;32.49;100268.78;10398429;27;97282;-76
2022/03/06 13:24:56;;;;;;;7.00;4.67;;;9.70;41.90;;;7.97;32.08;100267.03;10398377;27;96921;-76
2022/03/06 13:30:07;;;;;;;9.00;5.10;;;9.60;41.80;;;7.88;32.73;100255.53;10385239;28;96567;-77
2022/03/06 13:35:34;;;;;;;9.45;5.18;;;9.50;42.30;;;7.82;33.35;100257.94;10402532;27;96868;-78
2022/03/06 13:40:44;;;;;;;8.73;5.13;;;9.40;43.00;;;7.72;32.80;100252.69;10423296;27;96460;-77
2022/03/06 13:45:55;;;;;;;7.97;5.20;;;9.30;42.60;;;7.46;33.04;100256.03;10440253;27;96512;-77
2022/03/06 13:50:58;;;;;;;10.60;5.60;;;9.10;42.40;;;7.46;33.69;100252.56;10401842;27;97128;-77
2022/03/06 13:56:04;;;;;;;10.50;6.10;;;9.10;43.00;;;7.26;33.43;100251.81;10400124;27;96584;-76
2022/03/06 14:01:11;;;;;;;9.03;5.57;;;9.00;42.80;;;7.16;34.10;100251.84;10397727;28;96876;-77
2022/03/06 14:06:15;;;;;;;9.70;5.20;;;8.80;43.80;;;7.02;34.65;100243.53;10385669;27;96661;-74
2022/03/06 14:11:28;;;;;;;6.30;4.43;;;8.70;43.70;;;6.85;34.94;100253.88;10429363;27;99789;-77
2022/03/06 14:16:31;;;;;;;9.77;4.23;;;8.50;44.00;;;6.71;34.72;100246.38;10407050;27;97365;-78
2022/03/06 14:21:40;;;;;;;9.77;5.43;;;8.40;43.80;;;6.62;35.14;100248.09;10419001;27;96533;-77
2022/03/06 14:26:50;;;;;;;12.97;5.67;;;8.30;44.10;;;6.53;35.50;100254.19;10437184;27;96590;-78
2022/03/06 14:32:00;;;;;;;10.23;5.97;;;8.30;44.30;;;6.43;35.40;100245.47;10410623;27;99551;-77
2022/03/06 14:37:04;;;;;;;9.23;5.17;;;8.20;44.10;;;6.32;35.42;100250.88;10429011;27;97466;-78
2022/03/06 14:42:07;;;;;;;16.33;7.03;;;8.10;44.00;;;6.30;35.48;100244.94;10416489;27;96519;-76
2022/03/06 14:47:10;;;;;;;11.43;5.73;;;8.10;44.30;;;6.29;36.18;100245.88;10402981;27;96541;-78
2022/03/06 14:52:13;;;;;;;20.40;11.17;;;8.00;45.00;;;6.22;35.51;100239.50;10417628;27;96805;-77
2022/03/06 14:57:16;;;;;;;9.50;5.93;;;8.00;44.60;;;6.22;36.56;100236.84;10403604;27;98447;-77
2022/03/06 15:02:18;;;;;;;9.57;5.17;;;7.90;45.30;;;6.31;36.21;100239.50;10445111;27;96646;-78
2022/03/06 15:07:22;;;;;;;12.47;5.77;;;8.00;45.10;;;6.36;35.86;100231.19;10428944;27;96574;-77
2022/03/06 15:12:28;;;;;;;7.77;5.07;;;8.10;45.00;;;6.35;35.85;100229.47;10432595;27;96659;-76
2022/03/06 15:17:31;;;;;;;11.60;6.37;;;8.00;44.90;;;6.38;36.30;100231.84;10459911;27;96675;-76
2022/03/06 15:22:34;;;;;;;12.30;6.87;;;8.10;45.40;;;6.36;35.47;100221.44;10421988;27;98226;-77
2022/03/06 15:27:37;;;;;;;10.07;5.90;;;8.10;44.80;;;6.36;35.91;100218.81;10448551;27;96600;-78
2022/03/06 15:32:40;;;;;;;11.70;6.17;;;8.10;45.00;;;6.32;35.72;100221.84;10421893;27;96710;-77
2022/03/06 15:37:43;;;;;;;11.53;7.07;;;8.10;45.00;;;6.24;35.37;100217.28;10417995;27;97361;-77
2022/03/06 15:42:46;;;;;;;9.87;5.53;;;8.00;44.90;;;6.16;35.81;100219.78;10405463;27;96633;-75
2022/03/06 15:47:49;;;;;;;11.73;5.80;;;7.90;45.00;;;6.02;36.39;100218.38;10429746;27;96556;-76
2022/03/06 15:52:52;;;;;;;16.10;7.63;;;7.80;45.30;;;5.88;36.34;100221.41;10448266;27;98472;-76
2022/03/06 15:57:55;;;;;;;25.07;11.70;;;7.70;45.40;;;5.69;36.92;100221.34;10427857;27;96874;-77
2022/03/06 16:02:58;;;;;;;9.53;5.60;;;7.50;45.60;;;5.46;38.49;100232.16;10395252;27;96603;-77
2022/03/06 16:08:02;;;;;;;13.80;6.57;;;7.40;47.40;;;5.23;39.16;100239.41;10420492;27;98706;-77
2022/03/06 16:13:05;;;;;;;23.00;7.80;;;7.10;47.90;;;5.03;39.75;100235.81;10412798;27;96973;-77
2022/03/06 16:18:08;;;;;;;15.40;7.93;;;6.80;48.50;;;4.84;40.25;100238.38;10418470;27;96893;-77
2022/03/06 16:23:23;;;;;;;16.27;7.90;;;6.60;49.40;;;4.64;40.86;100239.22;10394785;27;96942;-77
2022/03/06 16:28:26;;;;;;;13.87;6.83;;;6.40;50.20;;;4.47;41.30;100243.25;10420672;27;96884;-78
2022/03/06 16:33:32;;;;;;;11.73;7.07;;;6.20;50.70;;;4.29;41.76;100248.25;10426743;27;97511;-77
2022/03/06 16:38:35;;;;;;;16.83;8.67;;;6.00;50.80;;;4.11;42.07;100255.84;10445333;27;98430;-77
2022/03/06 16:43:38;;;;;;;18.10;8.27;;;5.90;50.70;;;3.92;42.79;100253.88;10413663;27;97589;-76
2022/03/06 16:48:41;;;;;;;16.83;8.40;;;5.70;51.00;;;3.74;43.36;100250.09;10420975;27;97907;-77
2022/03/06 16:53:45;;;;;;;27.03;15.20;;;5.50;51.20;;;3.49;44.07;100253.84;10411468;27;96812;-76
2022/03/06 16:58:48;;;;;;;23.40;13.83;;;5.30;51.20;;;3.26;44.53;100249.56;10408131;27;97648;-79
2022/03/06 17:03:51;;;;;;;15.27;8.90;;;5.10;51.60;;;3.04;45.03;100261.72;10434220;27;97651;-78
2022/03/06 17:08:54;;;;;;;14.10;7.57;;;4.90;52.50;;;2.88;45.44;100263.88;10412288;27;96642;-77
2022/03/06 17:13:57;;;;;;;12.87;7.33;;;4.70;52.70;;;2.77;46.04;100269.94;10449497;27;96514;-77
2022/03/06 17:19:00;;;;;;;12.60;7.53;;;4.50;53.40;;;2.69;46.61;100272.28;10432722;27;96970;-80
2022/03/06 17:24:04;;;;;;;14.80;8.20;;;4.40;54.10;;;2.65;46.68;100262.97;10431902;27;96566;-78
2022/03/06 17:29:07;;;;;;;16.73;8.10;;;4.40;54.20;;;2.64;46.72;100271.81;10414295;27;97917;-78
2022/03/06 17:34:11;;;;;;;20.63;10.43;;;4.40;54.70;;;2.63;46.86;100270.94;10415797;27;97388;-78
2022/03/06 17:39:14;;;;;;;18.60;9.30;;;4.30;55.20;;;2.63;47.06;100273.56;10415761;27;98405;-75
2022/03/06 17:44:17;;;;;;;19.93;9.37;;;4.30;55.40;;;2.62;47.20;100278.94;10414393;27;97976;-75
2022/03/06 17:49:20;;;;;;;13.87;7.87;;;4.30;55.70;;;2.60;47.55;100278.22;10414599;27;98011;-75
2022/03/06 17:54:23;;;;;;;20.43;8.73;;;4.30;55.50;;;2.55;47.44;100289.06;10430725;27;96597;-76
2022/03/06 17:59:26;;;;;;;18.13;8.60;;;4.20;55.60;;;2.50;47.57;100290.34;10420356;27;97037;-76
2022/03/06 18:04:30;;;;;;;15.30;7.77;;;4.20;56.10;;;2.47;48.02;100293.22;10429174;27;96625;-76
2022/03/06 18:09:33;;;;;;;14.90;8.30;;;4.10;56.50;;;2.38;48.23;100299.97;10435506;27;96535;-77
2022/03/06 18:14:36;;;;;;;17.53;8.43;;;4.10;56.40;;;2.21;48.88;100303.81;10413379;27;98542;-76
2022/03/06 18:19:39;;;;;;;15.30;7.73;;;3.90;56.60;;;2.07;48.92;100304.81;10436997;27;96709;-77
2022/03/06 18:24:42;;;;;;;16.10;7.53;;;3.80;56.60;;;1.93;49.25;100306.78;10402476;27;96852;-80
2022/03/06 18:29:45;;;;;;;15.13;8.13;;;3.70;57.20;;;1.75;49.82;100301.91;10422385;27;99493;-82
2022/03/06 18:34:48;;;;;;;17.43;8.67;;;3.60;57.20;;;1.60;50.37;100302.97;10402042;27;98647;-78
2022/03/06 18:39:52;;;;;;;15.70;7.80;;;3.40;57.80;;;1.51;50.65;100304.47;10419691;27;98542;-78
2022/03/06 18:44:56;;;;;;;16.00;7.83;;;3.30;58.50;;;1.38;50.86;100316.75;10461054;27;96774;-80
2022/03/06 18:49:59;;;;;;;15.70;7.23;;;3.20;57.90;;;1.28;51.20;100305.22;10424343;27;98692;-81
2022/03/06 18:55:04;;;;;;;15.57;8.27;;;3.10;58.40;;;1.24;51.02;100315.06;10429114;27;96566;-82
2022/03/06 19:00:08;;;;;;;14.57;7.67;;;3.00;58.90;;;1.18;51.25;100318.09;10440875;27;98321;-81
2022/03/06 19:05:11;;;;;;;17.40;8.33;;;2.90;58.90;;;1.14;51.51;100316.66;10415436;27;97343;-80
2022/03/06 19:10:16;;;;;;;15.20;7.20;;;2.90;59.00;;;1.12;51.41;100323.75;10410866;27;97519;-79
2022/03/06 19:15:20;;;;;;;16.33;7.87;;;2.90;59.30;;;1.10;51.61;100319.59;10427849;27;96683;-77
2022/03/06 19:20:23;;;;;;;16.43;8.23;;;2.80;59.80;;;1.07;51.68;100316.22;10427918;27;96803;-77
2022/03/06 19:25:27;;;;;;;16.80;8.57;;;2.80;59.80;;;1.01;51.79;100321.03;10424772;27;99128;-76
2022/03/06 19:30:30;;;;;;;14.50;8.10;;;2.80;59.60;;;0.92;51.70;100327.72;10437015;27;98081;-77
2022/03/06 19:35:34;;;;;;;18.23;8.67;;;2.70;59.60;;;0.83;52.24;100311.81;10398926;27;96607;-77
2022/03/06 19:40:37;;;;;;;16.77;9.57;;;2.60;60.00;;;0.75;53.05;100315.78;10422498;27;98536;-79
2022/03/06 19:45:40;;;;;;;20.43;10.10;;;2.50;60.50;;;0.68;53.10;100314.50;10417170;27;96742;-79
2022/03/06 19:50:44;;;;;;;18.57;9.80;;;2.50;60.50;;;0.62;53.19;100314.91;10417409;27;96829;-79
2022/03/06 19:55:47;;;;;;;23.70;10.60;;;2.40;60.90;;;0.59;53.31;100322.94;10435392;27;98117;-78
2022/03/06 20:00:50;;;;;;;20.90;10.57;;;2.30;61.10;;;0.59;53.35;100333.41;10422137;27;96780;-78
2022/03/06 20:05:54;;;;;;;22.63;10.40;;;2.30;61.40;;;0.58;53.29;100336.97;10397942;27;98474;-78
2022/03/06 20:10:57;;;;;;;20.70;10.00;;;2.30;61.40;;;0.55;53.76;100337.19;10407262;27;96619;-79
2022/03/06 20:15:59;;;;;;;21.00;9.83;;;2.30;61.70;;;0.51;53.53;100335.69;10424953;27;99802;-78
2022/03/06 20:21:03;;;;;;;23.87;10.47;;;2.30;61.80;;;0.45;53.69;100338.72;10433388;27;98674;-78
2022/03/06 20:26:07;;;;;;;22.10;11.17;;;2.20;61.70;;;0.38;53.93;100333.06;10451063;27;98426;-76
2022/03/06 20:31:10;;;;;;;22.50;10.90;;;2.20;61.90;;;0.35;54.07;100340.25;10434517;27;96770;-76
2022/03/06 20:36:14;;;;;;;22.93;10.47;;;2.10;61.90;;;0.30;54.04;100344.91;10441198;27;96695;-76
2022/03/06 20:41:17;;;;;;;22.20;10.07;;;2.10;61.90;;;0.22;54.21;100335.81;10419080;27;98780;-78
2022/03/06 20:46:24;;;;;;;20.00;9.07;;;2.00;62.10;;;0.18;54.71;100341.31;10431171;27;98475;-78
2022/03/06 20:51:28;;;;;;;16.47;9.20;;;2.00;62.60;;;0.21;54.30;100341.97;10412110;27;97922;-78
2022/03/06 20:56:32;;;;;;;18.50;9.47;;;2.00;62.80;;;0.22;54.39;100346.25;10401549;27;98515;-78
2022/03/06 21:01:40;;;;;;;17.27;9.00;;;2.00;62.70;;;0.20;54.58;100349.91;10426636;27;96548;-77